Time;durP1;ratioP1;P1;durP2;ratioP2;P2;SDS_P1;SDS_P2;PMS_P1;PMS_P2;Temp;Humidity;BMP_temperature;BMP_pressure;BME280_temperature;BME280_humidity;BME280_pressure;Samples;Min_cycle;Max_cycle;Signal;HPM_P1;HPM_P2
2021/03/08 00:02:24;;;;;;;10.70;7.68;;;;;;;;;;5053403;28;20226;-48
2021/03/08 00:04:52;;;;;;;13.23;7.65;;;;;;;;;;5053380;28;20196;-51
2021/03/08 00:07:19;;;;;;;12.38;7.00;;;;;;;;;;5053142;28;20195;-47
2021/03/08 00:09:45;;;;;;;16.95;7.93;;;;;;;;;;5052829;28;20221;-48
2021/03/08 00:12:32;;;;;;;15.75;7.60;;;;;;;;;;5053069;27;20209;-51
2021/03/08 00:14:58;;;;;;;15.20;7.97;;;;;;;;;;5052960;28;20225;-46
2021/03/08 00:17:25;;;;;;;10.52;8.13;;;;;;;;;;5052653;28;20202;-54
2021/03/08 00:19:52;;;;;;;13.05;8.18;;;;;;;;;;5053226;28;20193;-47
2021/03/08 00:22:19;;;;;;;13.50;9.02;;;;;;;;;;5052940;28;20224;-50
2021/03/08 00:24:47;;;;;;;10.43;6.57;;;;;;;;;;5051722;28;20216;-51
2021/03/08 00:27:14;;;;;;;11.30;7.45;;;;;;;;;;5058802;28;20214;-43
2021/03/08 00:29:42;;;;;;;10.80;7.75;;;;;;;;;;5052258;27;20217;-49
2021/03/08 00:32:27;;;;;;;14.30;8.00;;;;;;;;;;5052186;28;20211;-50
2021/03/08 00:34:54;;;;;;;9.50;6.85;;;;;;;;;;5050487;28;20323;-48
2021/03/08 00:37:21;;;;;;;12.27;6.80;;;;;;;;;;5052838;28;20211;-45
2021/03/08 00:40:01;;;;;;;12.70;6.80;;;;;;;;;;5052484;28;20213;-47
2021/03/08 00:42:28;;;;;;;35.53;22.00;;;;;;;;;;5050019;27;20228;-53
2021/03/08 00:44:56;;;;;;;18.83;12.57;;;;;;;;;;5053021;27;20218;-50
2021/03/08 00:47:53;;;;;;;20.88;13.93;;;;;;;;;;5055932;28;20202;-55
2021/03/08 00:50:22;;;;;;;11.95;7.82;;;;;;;;;;5056110;27;20208;-47
2021/03/08 00:52:51;;;;;;;11.60;7.32;;;;;;;;;;5055835;28;20199;-49
2021/03/08 00:55:31;;;;;;;11.98;7.53;;;;;;;;;;5056103;28;20246;-49
2021/03/08 00:57:58;;;;;;;12.35;7.95;;;;;;;;;;5056138;27;20213;-49
2021/03/08 01:00:30;;;;;;;12.27;8.70;;;;;;;;;;5055173;28;20221;-50
2021/03/08 01:02:57;;;;;;;16.15;10.65;;;;;;;;;;5055795;28;20273;-47
2021/03/08 01:05:24;;;;;;;14.27;9.27;;;;;;;;;;5055624;27;20210;-51
2021/03/08 01:07:51;;;;;;;20.38;12.43;;;;;;;;;;5055269;28;20186;-50
2021/03/08 01:10:44;;;;;;;23.02;16.25;;;;;;;;;;5047787;27;20217;-46
2021/03/08 01:13:10;;;;;;;17.35;11.00;;;;;;;;;;5054795;27;20197;-46
2021/03/08 01:15:38;;;;;;;29.27;18.80;;;;;;;;;;5055636;28;20213;-49
2021/03/08 01:18:05;;;;;;;26.90;17.50;;;;;;;;;;5055708;27;20217;-49
2021/03/08 01:20:32;;;;;;;21.58;12.23;;;;;;;;;;5055808;28;20233;-51
2021/03/08 01:22:59;;;;;;;12.25;7.38;;;;;;;;;;5055749;28;20286;-47
2021/03/08 01:25:42;;;;;;;15.13;10.25;;;;;;;;;;5055277;28;20218;-47
2021/03/08 01:28:12;;;;;;;14.40;8.73;;;;;;;;;;5055681;28;20198;-53
2021/03/08 01:30:40;;;;;;;16.30;9.20;;;;;;;;;;5055161;28;20237;-46
2021/03/08 01:33:07;;;;;;;11.13;8.57;;;;;;;;;;5055717;28;20202;-51
2021/03/08 01:35:34;;;;;;;15.98;9.75;;;;;;;;;;5055153;28;20212;-51
2021/03/08 01:38:11;;;;;;;19.08;11.88;;;;;;;;;;5055093;28;20205;-48
2021/03/08 01:40:40;;;;;;;15.30;8.43;;;;;;;;;;5055377;28;20241;-50
2021/03/08 01:43:08;;;;;;;10.10;7.60;;;;;;;;;;5054992;28;20249;-50
2021/03/08 01:45:51;;;;;;;17.77;10.02;;;;;;;;;;5055379;28;20210;-45
2021/03/08 01:48:17;;;;;;;13.55;8.52;;;;;;;;;;5054850;28;20291;-51
2021/03/08 01:50:46;;;;;;;15.10;8.27;;;;;;;;;;5054557;27;20209;-50
2021/03/08 01:53:14;;;;;;;14.80;8.32;;;;;;;;;;5054737;28;20233;-48
2021/03/08 01:55:41;;;;;;;17.77;8.88;;;;;;;;;;5053811;28;20243;-49
2021/03/08 01:58:14;;;;;;;12.18;8.65;;;;;;;;;;5054360;27;20226;-47
2021/03/08 02:00:40;;;;;;;12.80;10.07;;;;;;;;;;5054557;28;20244;-46
2021/03/08 02:03:08;;;;;;;10.57;8.00;;;;;;;;;;5054749;28;20259;-49
2021/03/08 02:06:07;;;;;;;12.57;9.25;;;;;;;;;;5054878;28;20537;-50
2021/03/08 02:08:35;;;;;;;16.92;9.77;;;;;;;;;;5052079;27;20254;-51
2021/03/08 02:11:07;;;;;;;16.30;12.15;;;;;;;;;;5054700;28;20206;-50
2021/03/08 02:16:41;;;;;;;19.65;14.45;;;;;;;;;;5053011;28;20247;-49
2021/03/08 02:19:14;;;;;;;19.15;11.20;;;;;;;;;;5054042;28;20240;-48
2021/03/08 02:22:04;;;;;;;15.38;11.45;;;;;;;;;;5053584;28;20259;-47
2021/03/08 02:24:40;;;;;;;15.48;10.25;;;;;;;;;;5054987;27;20247;-47
2021/03/08 02:27:12;;;;;;;15.93;10.52;;;;;;;;;;5053774;28;20212;-46
2021/03/08 02:30:11;;;;;;;17.63;9.05;;;;;;;;;;5054279;28;20196;-46
2021/03/08 02:32:41;;;;;;;14.02;9.85;;;;;;;;;;5054173;28;20206;-50
2021/03/08 02:35:10;;;;;;;19.48;10.55;;;;;;;;;;5054352;28;20228;-50
2021/03/08 02:37:49;;;;;;;17.27;10.38;;;;;;;;;;5054380;27;20225;-45
2021/03/08 02:40:18;;;;;;;14.65;9.80;;;;;;;;;;5054482;27;20207;-51
2021/03/08 02:42:48;;;;;;;14.02;10.90;;;;;;;;;;5054506;28;20218;-49
2021/03/08 02:45:44;;;;;;;13.88;10.63;;;;;;;;;;5054255;28;20216;-48
2021/03/08 02:48:12;;;;;;;15.88;10.15;;;;;;;;;;5054183;28;20210;-50
2021/03/08 02:50:39;;;;;;;15.27;10.23;;;;;;;;;;5054334;27;20212;-52
2021/03/08 02:53:38;;;;;;;17.55;12.07;;;;;;;;;;5054883;28;20301;-54
2021/03/08 02:56:07;;;;;;;12.90;9.15;;;;;;;;;;5054871;28;20229;-52
2021/03/08 02:58:35;;;;;;;16.17;10.70;;;;;;;;;;5052106;28;20203;-52
2021/03/08 03:01:06;;;;;;;18.52;10.35;;;;;;;;;;5053764;28;20218;-47
2021/03/08 03:03:35;;;;;;;19.63;9.90;;;;;;;;;;5052229;28;20212;-51
2021/03/08 03:06:02;;;;;;;14.90;10.32;;;;;;;;;;5052023;28;20198;-49
2021/03/08 03:08:33;;;;;;;13.90;9.30;;;;;;;;;;5054178;28;20274;-52
2021/03/08 03:11:01;;;;;;;12.43;9.48;;;;;;;;;;5054548;27;20207;-49
2021/03/08 03:13:29;;;;;;;16.75;9.80;;;;;;;;;;5052906;28;20222;-49
2021/03/08 03:15:56;;;;;;;13.25;9.40;;;;;;;;;;5052851;28;20221;-45
2021/03/08 03:18:26;;;;;;;13.38;9.50;;;;;;;;;;5053461;28;20220;-49
2021/03/08 03:20:54;;;;;;;14.48;9.27;;;;;;;;;;5053603;27;20224;-48
2021/03/08 03:23:21;;;;;;;13.85;9.80;;;;;;;;;;5053746;27;20263;-47
2021/03/08 03:25:49;;;;;;;13.85;9.57;;;;;;;;;;5053950;28;20230;-50
2021/03/08 03:28:17;;;;;;;15.00;9.60;;;;;;;;;;5053098;28;20219;-56
2021/03/08 03:30:45;;;;;;;15.23;9.45;;;;;;;;;;5053402;28;20213;-50
2021/03/08 03:33:14;;;;;;;15.38;10.65;;;;;;;;;;5053857;28;20237;-52
2021/03/08 03:35:41;;;;;;;14.63;9.45;;;;;;;;;;5053744;28;20197;-48
2021/03/08 03:38:10;;;;;;;16.58;9.85;;;;;;;;;;5053087;28;20219;-53
2021/03/08 03:40:37;;;;;;;24.38;11.80;;;;;;;;;;5053126;27;20294;-52
2021/03/08 03:43:14;;;;;;;24.00;11.00;;;;;;;;;;5053351;28;20264;-51
2021/03/08 03:45:41;;;;;;;13.98;10.45;;;;;;;;;;5051222;27;20246;-51
2021/03/08 03:48:08;;;;;;;17.80;10.13;;;;;;;;;;5053346;28;20311;-48
2021/03/08 03:50:35;;;;;;;18.33;11.48;;;;;;;;;;5053144;28;20218;-50
2021/03/08 03:53:02;;;;;;;14.90;9.63;;;;;;;;;;5053307;28;20203;-51
2021/03/08 03:55:30;;;;;;;15.25;10.32;;;;;;;;;;5052720;28;20183;-46
2021/03/08 03:58:01;;;;;;;15.90;10.25;;;;;;;;;;5053218;28;20216;-47
2021/03/08 04:00:29;;;;;;;11.88;8.93;;;;;;;;;;5053039;27;20255;-52
2021/03/08 04:03:02;;;;;;;12.65;8.65;;;;;;;;;;5052730;28;20242;-52
2021/03/08 04:05:46;;;;;;;17.88;12.30;;;;;;;;;;5052588;28;20208;-51
2021/03/08 04:08:17;;;;;;;17.13;12.07;;;;;;;;;;5052713;28;20218;-51
2021/03/08 04:10:46;;;;;;;14.02;9.77;;;;;;;;;;5049195;28;20227;-51
2021/03/08 04:13:15;;;;;;;15.18;10.57;;;;;;;;;;5052313;28;20197;-51
2021/03/08 04:15:42;;;;;;;15.50;9.02;;;;;;;;;;5052801;28;20216;-50
2021/03/08 04:18:12;;;;;;;17.83;8.90;;;;;;;;;;5052866;28;20213;-53
2021/03/08 04:20:45;;;;;;;13.50;8.80;;;;;;;;;;5051915;28;20236;-54
2021/03/08 04:23:14;;;;;;;14.10;9.07;;;;;;;;;;5066041;28;20211;-51
2021/03/08 04:26:12;;;;;;;16.33;9.73;;;;;;;;;;5052961;28;20233;-47
2021/03/08 04:28:43;;;;;;;11.15;9.73;;;;;;;;;;5063748;27;20216;-53
2021/03/08 04:31:12;;;;;;;13.48;9.10;;;;;;;;;;5093288;28;20203;-51
2021/03/08 04:33:39;;;;;;;12.75;9.05;;;;;;;;;;5045568;28;20273;-46
2021/03/08 04:36:08;;;;;;;13.13;8.80;;;;;;;;;;5043438;28;20213;-53
2021/03/08 04:38:35;;;;;;;15.15;10.88;;;;;;;;;;5053224;27;20224;-52
2021/03/08 04:44:08;;;;;;;12.90;9.40;;;;;;;;;;5052678;28;20182;-46
2021/03/08 04:46:35;;;;;;;17.58;9.73;;;;;;;;;;5052634;27;20178;-56
2021/03/08 04:49:07;;;;;;;17.00;10.10;;;;;;;;;;5052788;27;20197;-52
2021/03/08 04:51:36;;;;;;;15.75;10.15;;;;;;;;;;5052770;27;20193;-52
2021/03/08 04:54:03;;;;;;;14.32;10.30;;;;;;;;;;5052009;28;20201;-53
2021/03/08 04:56:32;;;;;;;16.70;11.10;;;;;;;;;;5051734;28;20318;-49
2021/03/08 04:59:04;;;;;;;12.00;8.38;;;;;;;;;;5045485;28;20202;-46
2021/03/08 05:01:41;;;;;;;18.20;8.95;;;;;;;;;;5045018;28;20233;-51
2021/03/08 05:04:26;;;;;;;14.82;9.23;;;;;;;;;;5052585;28;20208;-48
2021/03/08 05:06:54;;;;;;;15.23;9.35;;;;;;;;;;5052409;28;20209;-50
2021/03/08 05:09:22;;;;;;;19.38;10.35;;;;;;;;;;5052205;28;20206;-45
2021/03/08 05:11:51;;;;;;;15.38;9.13;;;;;;;;;;5051985;28;20481;-48
2021/03/08 05:14:19;;;;;;;13.63;8.95;;;;;;;;;;5044014;28;20240;-50
2021/03/08 05:16:52;;;;;;;16.50;10.25;;;;;;;;;;5048350;28;20203;-49
2021/03/08 05:19:24;;;;;;;15.85;11.18;;;;;;;;;;5044333;28;20204;-55
2021/03/08 05:21:51;;;;;;;17.85;9.32;;;;;;;;;;5031765;28;20284;-47
2021/03/08 05:24:18;;;;;;;13.07;9.63;;;;;;;;;;5051647;28;20205;-47
2021/03/08 05:27:08;;;;;;;16.90;10.07;;;;;;;;;;5051590;28;20196;-53
2021/03/08 05:29:35;;;;;;;13.48;9.45;;;;;;;;;;5050301;27;20628;-51
2021/03/08 05:32:05;;;;;;;16.45;11.23;;;;;;;;;;5051903;28;20207;-43
2021/03/08 05:34:32;;;;;;;13.80;9.85;;;;;;;;;;5064528;28;20189;-52
2021/03/08 05:37:01;;;;;;;13.85;10.93;;;;;;;;;;5134443;28;20183;-51
2021/03/08 05:39:34;;;;;;;14.10;10.02;;;;;;;;;;5054767;28;20187;-52
2021/03/08 05:42:04;;;;;;;19.08;10.20;;;;;;;;;;5052381;28;20233;-48
2021/03/08 05:44:33;;;;;;;15.05;10.20;;;;;;;;;;5054923;28;20206;-48
2021/03/08 05:47:39;;;;;;;13.88;9.75;;;;;;;;;;5050744;28;20202;-49
2021/03/08 05:50:20;;;;;;;15.68;10.45;;;;;;;;;;5086221;28;20288;-47
2021/03/08 05:53:17;;;;;;;17.42;10.68;;;;;;;;;;5041192;28;20267;-48
2021/03/08 05:55:54;;;;;;;15.50;9.82;;;;;;;;;;5138034;27;20217;-46
2021/03/08 05:58:29;;;;;;;22.05;9.63;;;;;;;;;;5116822;27;20292;-48
2021/03/08 06:01:03;;;;;;;12.82;9.38;;;;;;;;;;5071078;28;20269;-47
2021/03/08 06:03:48;;;;;;;18.33;11.13;;;;;;;;;;5053563;28;20202;-45
2021/03/08 06:06:32;;;;;;;18.58;10.65;;;;;;;;;;5075285;28;20278;-49
2021/03/08 06:09:21;;;;;;;20.10;11.90;;;;;;;;;;5074703;28;20212;-52
2021/03/08 06:12:19;;;;;;;18.73;10.82;;;;;;;;;;5055383;28;20198;-50
2021/03/08 06:14:47;;;;;;;14.68;10.27;;;;;;;;;;5055211;28;20202;-52
2021/03/08 06:17:15;;;;;;;13.43;9.45;;;;;;;;;;5054973;28;20330;-54
2021/03/08 06:20:14;;;;;;;15.43;9.80;;;;;;;;;;5054276;28;20202;-50
2021/03/08 06:22:40;;;;;;;15.25;10.65;;;;;;;;;;5054227;28;20240;-49
2021/03/08 06:25:12;;;;;;;13.98;10.57;;;;;;;;;;5060708;28;20206;-45
2021/03/08 06:27:53;;;;;;;17.23;11.00;;;;;;;;;;5059478;28;20273;-49
2021/03/08 06:30:20;;;;;;;20.25;11.50;;;;;;;;;;5054514;28;20228;-50
2021/03/08 06:32:47;;;;;;;16.60;10.77;;;;;;;;;;5053594;28;20202;-56
2021/03/08 06:35:23;;;;;;;19.02;11.32;;;;;;;;;;5085441;27;20276;-49
2021/03/08 06:37:52;;;;;;;20.92;11.05;;;;;;;;;;5089623;27;20224;-47
2021/03/08 06:40:20;;;;;;;23.77;12.75;;;;;;;;;;5054133;28;20271;-48
2021/03/08 06:42:52;;;;;;;17.40;12.07;;;;;;;;;;5056325;28;20257;-55
2021/03/08 06:45:19;;;;;;;15.43;11.07;;;;;;;;;;5033770;28;20210;-50
2021/03/08 06:48:14;;;;;;;16.25;10.95;;;;;;;;;;5125471;27;20231;-56
2021/03/08 06:50:40;;;;;;;22.08;12.75;;;;;;;;;;5158133;27;20206;-50
2021/03/08 06:53:07;;;;;;;23.55;12.48;;;;;;;;;;5157644;27;20214;-53
2021/03/08 06:55:40;;;;;;;23.75;10.82;;;;;;;;;;5158374;27;20186;-53
2021/03/08 06:58:17;;;;;;;18.95;11.60;;;;;;;;;;5114365;27;20264;-54
2021/03/08 07:00:45;;;;;;;16.70;11.20;;;;;;;;;;5079928;27;20249;-52
2021/03/08 07:03:36;;;;;;;19.38;12.30;;;;;;;;;;5157701;27;20226;-49
2021/03/08 07:06:28;;;;;;;19.70;11.60;;;;;;;;;;5034446;28;20194;-48
2021/03/08 07:09:05;;;;;;;31.70;11.90;;;;;;;;;;5033888;28;20189;-51
2021/03/08 07:11:33;;;;;;;18.38;11.55;;;;;;;;;;5048411;28;20204;-52
2021/03/08 07:14:23;;;;;;;20.75;11.90;;;;;;;;;;5053137;28;20205;-53
2021/03/08 07:16:50;;;;;;;23.10;13.88;;;;;;;;;;5047538;28;20213;-51
2021/03/08 07:19:54;;;;;;;18.90;12.30;;;;;;;;;;5052846;28;20213;-49
2021/03/08 07:22:37;;;;;;;21.20;13.80;;;;;;;;;;5034647;28;20286;-52
2021/03/08 07:25:28;;;;;;;24.50;12.18;;;;;;;;;;5034242;28;20230;-49
2021/03/08 07:27:59;;;;;;;18.27;11.70;;;;;;;;;;5033266;28;20210;-46
2021/03/08 07:30:26;;;;;;;16.25;12.98;;;;;;;;;;5033074;28;20216;-51
2021/03/08 07:32:58;;;;;;;20.05;12.45;;;;;;;;;;5048916;28;20222;-49
2021/03/08 07:35:39;;;;;;;19.83;11.50;;;;;;;;;;5053051;28;20361;-57
2021/03/08 07:38:29;;;;;;;20.40;13.15;;;;;;;;;;5053375;28;20215;-55
2021/03/08 07:41:09;;;;;;;65.78;19.88;;;;;;;;;;5032882;28;20270;-54
2021/03/08 07:46:40;;;;;;;141.57;28.85;;;;;;;;;;5100624;27;20190;-48
2021/03/08 07:49:07;;;;;;;117.40;24.33;;;;;;;;;;5052931;27;20249;-51
2021/03/08 07:51:59;;;;;;;79.50;17.88;;;;;;;;;;5053191;27;20191;-47
2021/03/08 07:54:29;;;;;;;34.58;15.98;;;;;;;;;;5052052;27;20218;-53
2021/03/08 07:56:58;;;;;;;25.48;15.18;;;;;;;;;;5052866;27;20198;-52
2021/03/08 07:59:26;;;;;;;32.20;15.55;;;;;;;;;;5035658;28;20206;-49
2021/03/08 08:01:54;;;;;;;24.95;13.95;;;;;;;;;;5052684;27;20227;-51
2021/03/08 08:04:38;;;;;;;66.95;19.77;;;;;;;;;;5053085;27;20233;-55
2021/03/08 08:07:06;;;;;;;39.63;18.88;;;;;;;;;;5052963;28;20209;-52
2021/03/08 08:09:37;;;;;;;35.40;18.90;;;;;;;;;;5053025;28;20235;-51
2021/03/08 08:12:25;;;;;;;36.38;21.08;;;;;;;;;;5052700;27;20177;-52
2021/03/08 08:14:52;;;;;;;40.15;22.50;;;;;;;;;;5052890;27;20245;-53
2021/03/08 08:17:23;;;;;;;54.35;29.77;;;;;;;;;;5052993;28;20178;-54
2021/03/08 08:20:10;;;;;;;42.03;25.80;;;;;;;;;;5052753;27;20242;-49
2021/03/08 08:22:44;;;;;;;47.05;26.48;;;;;;;;;;5052719;27;20291;-47
2021/03/08 08:25:12;;;;;;;46.35;26.10;;;;;;;;;;5052070;27;20274;-52
2021/03/08 08:27:49;;;;;;;45.20;24.55;;;;;;;;;;5052486;27;20254;-46
2021/03/08 08:30:17;;;;;;;38.40;22.90;;;;;;;;;;5052745;27;20196;-49
2021/03/08 08:32:48;;;;;;;45.17;25.88;;;;;;;;;;5052406;27;20214;-50
2021/03/08 08:35:28;;;;;;;38.75;23.65;;;;;;;;;;5048399;27;20198;-44
2021/03/08 08:38:20;;;;;;;42.22;26.63;;;;;;;;;;5053464;27;20203;-52
2021/03/08 08:40:47;;;;;;;42.70;26.90;;;;;;;;;;5035410;28;20207;-51
2021/03/08 08:43:28;;;;;;;44.30;24.58;;;;;;;;;;5052391;28;20505;-50
2021/03/08 08:45:56;;;;;;;49.50;27.05;;;;;;;;;;5048343;27;20223;-53
2021/03/08 08:48:26;;;;;;;41.30;23.55;;;;;;;;;;5052158;28;20357;-47
2021/03/08 08:54:03;;;;;;;50.08;25.80;;;;;;;;;;5081766;28;20226;-47
2021/03/08 08:56:48;;;;;;;54.28;26.38;;;;;;;;;;5156417;27;20264;-53
2021/03/08 08:59:37;;;;;;;46.20;25.80;;;;;;;;;;5064080;28;20505;-55
2021/03/08 09:02:21;;;;;;;48.65;27.00;;;;;;;;;;5142807;27;20489;-53
2021/03/08 09:04:49;;;;;;;45.58;26.30;;;;;;;;;;5073246;27;20264;-51
2021/03/08 09:07:18;;;;;;;48.45;27.05;;;;;;;;;;5054507;28;20212;-54
2021/03/08 09:10:13;;;;;;;64.22;26.05;;;;;;;;;;5072005;27;20202;-54
2021/03/08 09:12:45;;;;;;;46.97;26.65;;;;;;;;;;5075475;28;20206;-51
2021/03/08 09:15:13;;;;;;;43.25;26.45;;;;;;;;;;5074681;27;20204;-48
2021/03/08 09:17:45;;;;;;;46.28;25.95;;;;;;;;;;5075006;28;20213;-51
2021/03/08 09:20:23;;;;;;;60.50;33.72;;;;;;;;;;5058896;27;20203;-55
2021/03/08 09:22:51;;;;;;;44.65;25.88;;;;;;;;;;5113568;27;20539;-50
2021/03/08 09:25:23;;;;;;;55.78;26.55;;;;;;;;;;5054508;28;20281;-48
2021/03/08 09:27:55;;;;;;;56.80;29.30;;;;;;;;;;5053842;28;20222;-50
2021/03/08 09:30:26;;;;;;;47.88;27.75;;;;;;;;;;5087392;27;20237;-55
2021/03/08 09:33:06;;;;;;;48.03;28.95;;;;;;;;;;5091029;27;20264;-49
2021/03/08 09:35:53;;;;;;;59.28;29.40;;;;;;;;;;5023950;28;20203;-49
2021/03/08 09:38:22;;;;;;;46.67;28.20;;;;;;;;;;5051429;27;20233;-50
2021/03/08 09:40:50;;;;;;;57.17;30.42;;;;;;;;;;5054025;28;20201;-52
2021/03/08 09:43:35;;;;;;;57.38;27.95;;;;;;;;;;5056619;27;20216;-57
2021/03/08 09:46:22;;;;;;;49.53;28.88;;;;;;;;;;5050911;28;20203;-49
2021/03/08 09:48:53;;;;;;;58.22;30.08;;;;;;;;;;5053903;28;20265;-54
2021/03/08 09:51:21;;;;;;;46.70;28.27;;;;;;;;;;5043986;28;20209;-51
2021/03/08 09:53:50;;;;;;;54.50;29.02;;;;;;;;;;5053570;28;20205;-52
2021/03/08 09:56:21;;;;;;;47.85;28.23;;;;;;;;;;5053438;28;20375;-51
2021/03/08 09:59:19;;;;;;;51.10;29.40;;;;;;;;;;5053700;28;20202;-53
2021/03/08 10:01:52;;;;;;;50.55;28.50;;;;;;;;;;5057457;27;20219;-53
2021/03/08 10:04:19;;;;;;;51.72;29.23;;;;;;;;;;5053994;28;20183;-55
2021/03/08 10:06:47;;;;;;;49.65;28.05;;;;;;;;;;5061764;28;20210;-51
2021/03/08 10:09:19;;;;;;;59.47;33.50;;;;;;;;;;5059656;28;20199;-54
2021/03/08 10:11:46;;;;;;;46.95;28.10;;;;;;;;;;5054258;28;20343;-56
2021/03/08 10:14:49;;;;;;;52.13;29.38;;;;;;;;;;5067058;27;20198;-54
2021/03/08 10:17:19;;;;;;;55.17;30.92;;;;;;;;;;5052184;28;20198;-55
2021/03/08 10:19:54;;;;;;;47.95;27.35;;;;;;;;;;5052653;28;20290;-48
2021/03/08 10:22:39;;;;;;;49.72;30.05;;;;;;;;;;5052714;28;20241;-58
2021/03/08 10:25:22;;;;;;;53.47;30.23;;;;;;;;;;5150102;27;20313;-55
2021/03/08 10:28:20;;;;;;;58.38;29.35;;;;;;;;;;5152108;27;20291;-51
2021/03/08 10:30:48;;;;;;;50.95;29.20;;;;;;;;;;5068823;28;20208;-50
2021/03/08 10:33:18;;;;;;;49.38;30.73;;;;;;;;;;5053592;28;20236;-47
2021/03/08 10:35:48;;;;;;;59.33;32.80;;;;;;;;;;5041431;28;20209;-50
2021/03/08 10:38:20;;;;;;;52.72;29.67;;;;;;;;;;5044639;28;20227;-51
2021/03/08 10:40:47;;;;;;;55.00;31.25;;;;;;;;;;5032854;28;20192;-54
2021/03/08 10:43:14;;;;;;;55.70;32.40;;;;;;;;;;5032901;28;20283;-53
2021/03/08 10:45:41;;;;;;;59.83;33.45;;;;;;;;;;5032499;28;20217;-58
2021/03/08 10:48:38;;;;;;;62.38;32.25;;;;;;;;;;5032574;28;20244;-52
2021/03/08 10:51:05;;;;;;;52.13;30.85;;;;;;;;;;5048965;28;20232;-53
2021/03/08 10:53:33;;;;;;;54.30;32.70;;;;;;;;;;5051629;28;20214;-56
2021/03/08 10:56:00;;;;;;;51.95;31.30;;;;;;;;;;5051109;28;20211;-56
2021/03/08 10:58:34;;;;;;;61.33;35.95;;;;;;;;;;5042092;28;20251;-54
2021/03/08 11:01:16;;;;;;;64.82;36.08;;;;;;;;;;5069898;28;20201;-59
2021/03/08 11:04:03;;;;;;;62.00;36.00;;;;;;;;;;5060602;28;20390;-57
2021/03/08 11:06:56;;;;;;;58.40;34.25;;;;;;;;;;5063843;28;20230;-50
2021/03/08 11:09:27;;;;;;;60.85;34.95;;;;;;;;;;5071500;28;20202;-55
2021/03/08 11:11:55;;;;;;;57.42;34.40;;;;;;;;;;5071771;28;20207;-55
2021/03/08 11:14:29;;;;;;;56.83;32.50;;;;;;;;;;5071719;28;20380;-61
2021/03/08 11:16:58;;;;;;;72.80;34.25;;;;;;;;;;5076577;28;20211;-61
2021/03/08 11:19:29;;;;;;;62.58;36.20;;;;;;;;;;5090217;28;20194;-61
2021/03/08 11:22:04;;;;;;;64.53;35.80;;;;;;;;;;5083214;28;20251;-56
2021/03/08 11:27:37;;;;;;;67.72;40.05;;;;;;;;;;5070920;28;20210;-49
2021/03/08 11:30:06;;;;;;;64.97;38.95;;;;;;;;;;5070921;28;20236;-56
2021/03/08 11:32:53;;;;;;;64.10;36.60;;;;;;;;;;5071134;28;20229;-50
2021/03/08 11:35:22;;;;;;;63.63;35.80;;;;;;;;;;5092715;28;20207;-54
2021/03/08 11:37:50;;;;;;;61.55;35.60;;;;;;;;;;5051064;28;20272;-60
2021/03/08 11:40:43;;;;;;;61.40;36.90;;;;;;;;;;5050866;28;20203;-53
2021/03/08 11:43:10;;;;;;;62.42;36.78;;;;;;;;;;5051309;28;20232;-60
2021/03/08 11:45:37;;;;;;;83.57;39.15;;;;;;;;;;5088237;27;20201;-59
2021/03/08 11:48:35;;;;;;;63.83;37.97;;;;;;;;;;5077012;27;20225;-58
2021/03/08 11:51:02;;;;;;;63.72;38.83;;;;;;;;;;5117040;28;20223;-55
2021/03/08 11:53:28;;;;;;;70.55;40.17;;;;;;;;;;5133696;28;20198;-55
2021/03/08 11:55:56;;;;;;;68.28;37.42;;;;;;;;;;5134641;28;20188;-51
2021/03/08 11:58:32;;;;;;;69.53;40.13;;;;;;;;;;5134869;28;20217;-52
2021/03/08 12:00:59;;;;;;;63.07;36.43;;;;;;;;;;5134961;27;20198;-57
2021/03/08 12:03:29;;;;;;;65.35;36.97;;;;;;;;;;5143510;27;20468;-55
2021/03/08 12:05:56;;;;;;;62.38;37.60;;;;;;;;;;5135081;28;20209;-51
2021/03/08 12:08:25;;;;;;;71.78;39.20;;;;;;;;;;5148960;27;20204;-56
2021/03/08 12:10:52;;;;;;;64.03;38.58;;;;;;;;;;5119199;28;20313;-61
2021/03/08 12:13:20;;;;;;;69.18;41.83;;;;;;;;;;5134132;28;20201;-56
2021/03/08 12:16:03;;;;;;;81.63;46.67;;;;;;;;;;5133821;28;20325;-56
2021/03/08 12:18:30;;;;;;;72.35;42.05;;;;;;;;;;5135093;28;20441;-57
2021/03/08 12:20:57;;;;;;;72.07;41.67;;;;;;;;;;5133961;28;20214;-60
2021/03/08 12:23:24;;;;;;;67.07;39.22;;;;;;;;;;5134676;28;20274;-55
2021/03/08 12:25:51;;;;;;;75.03;42.10;;;;;;;;;;5129201;28;20214;-58
2021/03/08 12:28:25;;;;;;;75.07;42.15;;;;;;;;;;5129449;28;20271;-56
2021/03/08 12:30:52;;;;;;;75.97;40.90;;;;;;;;;;5134331;28;20213;-56
2021/03/08 12:33:24;;;;;;;65.00;36.70;;;;;;;;;;5126735;27;20188;-55
2021/03/08 12:35:54;;;;;;;76.93;38.58;;;;;;;;;;5134416;28;20223;-50
2021/03/08 12:38:27;;;;;;;72.63;40.88;;;;;;;;;;5134631;28;20221;-56
2021/03/08 12:40:54;;;;;;;62.10;38.80;;;;;;;;;;5136056;28;20209;-51
2021/03/08 12:43:21;;;;;;;61.08;36.13;;;;;;;;;;5138743;28;20235;-50
2021/03/08 12:45:48;;;;;;;68.13;36.65;;;;;;;;;;5142637;27;20204;-53
2021/03/08 12:48:21;;;;;;;65.95;36.95;;;;;;;;;;5132360;28;20195;-55
2021/03/08 12:50:49;;;;;;;63.78;38.10;;;;;;;;;;5137431;28;20286;-49
2021/03/08 12:53:16;;;;;;;67.05;40.42;;;;;;;;;;5137666;27;20202;-49
2021/03/08 12:55:45;;;;;;;64.55;37.47;;;;;;;;;;5143398;27;20229;-58
2021/03/08 12:58:12;;;;;;;73.57;38.83;;;;;;;;;;5137634;28;20181;-56
2021/03/08 13:00:39;;;;;;;55.35;36.63;;;;;;;;;;5138069;28;20440;-54
2021/03/08 13:03:31;;;;;;;73.10;38.57;;;;;;;;;;5127972;28;20232;-56
2021/03/08 13:06:07;;;;;;;67.33;40.63;;;;;;;;;;5142704;27;20462;-53
2021/03/08 13:08:55;;;;;;;68.47;40.65;;;;;;;;;;5137521;27;20536;-57
2021/03/08 13:11:24;;;;;;;70.53;41.60;;;;;;;;;;5137898;28;20199;-55
2021/03/08 13:13:51;;;;;;;74.47;42.57;;;;;;;;;;5138081;28;20494;-55
2021/03/08 13:16:32;;;;;;;74.18;41.80;;;;;;;;;;5137098;28;20460;-59
2021/03/08 13:19:03;;;;;;;76.88;43.10;;;;;;;;;;5118924;27;20214;-55
2021/03/08 13:21:30;;;;;;;73.22;45.08;;;;;;;;;;5137164;27;20217;-55
2021/03/08 13:27:06;;;;;;;81.20;43.65;;;;;;;;;;5139803;27;20168;-53
2021/03/08 13:29:33;;;;;;;90.87;52.30;;;;;;;;;;5139932;27;20225;-57
2021/03/08 13:32:07;;;;;;;83.40;47.42;;;;;;;;;;5139928;27;20455;-58
2021/03/08 13:34:35;;;;;;;110.35;55.05;;;;;;;;;;5139930;27;20191;-59
2021/03/08 13:37:03;;;;;;;90.28;52.00;;;;;;;;;;5140080;27;20191;-56
2021/03/08 13:39:30;;;;;;;85.22;50.28;;;;;;;;;;5150020;27;20201;-53
2021/03/08 13:41:57;;;;;;;88.20;49.03;;;;;;;;;;5118908;28;20222;-54
2021/03/08 13:45:02;;;;;;;88.15;49.65;;;;;;;;;;5126680;28;20210;-59
2021/03/08 13:47:33;;;;;;;95.70;51.22;;;;;;;;;;5139678;27;20194;-52
2021/03/08 13:50:02;;;;;;;95.63;49.80;;;;;;;;;;5139450;28;20223;-59
2021/03/08 13:52:39;;;;;;;85.75;47.03;;;;;;;;;;5138202;28;20231;-57
2021/03/08 13:55:07;;;;;;;91.75;46.28;;;;;;;;;;5139426;28;20248;-55
2021/03/08 13:57:34;;;;;;;93.38;49.47;;;;;;;;;;5140382;27;20188;-56
2021/03/08 14:00:14;;;;;;;89.78;48.85;;;;;;;;;;5140222;27;20191;-54
2021/03/08 14:05:33;;;;;;;85.10;44.08;;;;;;;;;;5139868;27;20232;-55
2021/03/08 14:08:03;;;;;;;97.45;48.35;;;;;;;;;;5139551;27;20619;-50
2021/03/08 14:10:29;;;;;;;99.43;51.70;;;;;;;;;;5140149;27;20204;-54
2021/03/08 14:12:57;;;;;;;97.80;50.33;;;;;;;;;;5139275;27;20336;-53
2021/03/08 14:15:52;;;;;;;90.40;49.45;;;;;;;;;;5129138;28;20192;-58
2021/03/08 14:18:19;;;;;;;95.55;47.25;;;;;;;;;;5118189;28;20262;-60
2021/03/08 14:20:49;;;;;;;99.63;50.80;;;;;;;;;;5118063;28;20258;-55
2021/03/08 14:23:17;;;;;;;94.40;49.50;;;;;;;;;;5125430;28;20218;-56
2021/03/08 14:25:45;;;;;;;106.47;52.60;;;;;;;;;;5136525;28;20239;-59
2021/03/08 14:28:14;;;;;;;91.63;47.75;;;;;;;;;;5137678;28;20252;-57
2021/03/08 14:30:57;;;;;;;89.18;44.35;;;;;;;;;;5138662;28;20204;-60
2021/03/08 14:33:27;;;;;;;79.82;42.95;;;;;;;;;;5120720;28;20200;-56
2021/03/08 14:35:56;;;;;;;80.22;42.90;;;;;;;;;;5120731;28;20181;-52
2021/03/08 14:38:32;;;;;;;78.88;43.50;;;;;;;;;;5138716;28;20196;-56
2021/03/08 14:41:00;;;;;;;80.75;44.60;;;;;;;;;;5139015;27;20255;-57
2021/03/08 14:43:27;;;;;;;76.38;43.03;;;;;;;;;;5138650;27;20293;-55
2021/03/08 14:45:55;;;;;;;88.32;45.47;;;;;;;;;;5138854;27;20337;-60
2021/03/08 14:48:22;;;;;;;83.78;42.13;;;;;;;;;;5138719;28;20188;-46
2021/03/08 14:50:57;;;;;;;83.05;43.25;;;;;;;;;;5138179;27;20208;-48
2021/03/08 14:53:24;;;;;;;74.13;41.25;;;;;;;;;;5137887;28;20196;-51
2021/03/08 14:55:53;;;;;;;85.35;45.50;;;;;;;;;;5138167;28;20202;-51
2021/03/08 15:01:26;;;;;;;92.57;47.63;;;;;;;;;;5118690;28;20183;-59
2021/03/08 15:03:54;;;;;;;89.13;42.42;;;;;;;;;;5115783;27;20182;-57
2021/03/08 15:06:24;;;;;;;86.43;46.03;;;;;;;;;;5122081;28;20273;-56
2021/03/08 15:08:52;;;;;;;85.88;43.42;;;;;;;;;;5117797;28;20215;-56
2021/03/08 15:11:20;;;;;;;88.90;42.83;;;;;;;;;;5116957;28;20194;-52
2021/03/08 15:17:01;;;;;;;87.22;42.33;;;;;;;;;;5085275;28;20235;-57
2021/03/08 15:19:38;;;;;;;73.80;40.72;;;;;;;;;;5118117;27;20263;-55
2021/03/08 15:22:45;;;;;;;86.70;43.85;;;;;;;;;;5137542;27;20235;-53
2021/03/08 15:25:16;;;;;;;77.97;41.60;;;;;;;;;;5132182;28;20232;-57